Bookmark and Share
Track history (hours):
 

Handytankers Marvel

Last reported at 2014-Apr-13 07:14 UTC. Time now 2014-Apr-20 21:03 UTC.
Position N 35°48' E 014°38'.

Length 183 m; draft 7.2 m.

Type: Tanker. MMSI: 538003191.

NotesDate/timePositionNaut miles runAvg speedWind from/ knotsBaromVisibWave heightAir tempDewpointWater temp
2014-Apr-13 07:14N 35°48' E 014°38'10 0.4
2014-Apr-12 05:03N 35°51' E 014°50'0 0.0
2014-Apr-12 01:30N 35°51' E 014°50'0 0.0
2014-Apr-11 18:29N 35°51' E 014°50'0 0.0
2014-Apr-11 17:11N 35°51' E 014°50'171 5.6
2014-Apr-10 10:34N 37°08' E 011°40'1414.0
2014-Apr-10 09:34N 37°15' E 011°25'12714.1
2014-Apr-10 00:31N 38°18' E 009°05'2713.5
2014-Apr-09 22:32N 38°32' E 008°35'1513.7
2014-Apr-09 21:25N 38°39' E 008°18'1213.6
2014-Apr-09 20:34N 38°45' E 008°05'1313.2
2014-Apr-09 19:34N 38°52' E 007°50'2913.3
2014-Apr-09 17:21N 39°06' E 007°17'19713.3
2014-Apr-09 02:27N 40°44' E 003°34'1213.2
2014-Apr-09 01:33N 40°50' E 003°20'1413.6
2014-Apr-09 00:33N 40°56' E 003°04'1414.4
2014-Apr-08 23:33N 41°03' E 002°48'1413.3
2014-Apr-08 22:32N 41°10' E 002°32'1613.6
2014-Apr-08 21:20N 41°18' E 002°13'  
2014-Apr-06 07:33N 41°20' E 002°10'5 5.0
2014-Apr-06 06:33N 41°16' E 002°13'1 0.6
2014-Apr-06 05:33N 41°16' E 002°14'5 3.8
2014-Apr-06 04:08N 41°13' E 002°20'4 6.1
2014-Apr-06 03:33N 41°11' E 002°24'9 8.5
2014-Apr-06 02:32N 41°08' E 002°35'1312.0
2014-Apr-06 01:29N 41°02' E 002°50'1212.4
2014-Apr-06 00:33N 40°56' E 003°03'1312.8
2014-Apr-05 23:34N 40°50' E 003°18'2612.8
2014-Apr-05 21:33N 40°39' E 003°48'2812.2
2014-Apr-05 19:14N 40°25' E 004°21'1111.0
2014-Apr-05 18:13N 40°20' E 004°34'811.9
2014-Apr-05 17:33N 40°17' E 004°44'1111.1
2014-Apr-05 16:33N 40°11' E 004°57'15310.1
2014-Apr-05 01:24N 38°57' E 007°49'24 8.4
2014-Apr-04 22:31N 38°45' E 008°16'11 7.9
2014-Apr-04 21:09N 38°39' E 008°28'5 8.2
2014-Apr-04 20:33N 38°37' E 008°34'9 8.6
2014-Apr-04 19:33N 38°33' E 008°43'178 9.8
2014-Apr-04 01:25N 37°07' E 012°00'8211.9
2014-Apr-03 18:29N 36°41' E 013°38'1112.3
2014-Apr-03 17:34N 36°38' E 013°52'1212.4
2014-Apr-03 16:34N 36°34' E 014°06'1212.5
2014-Apr-03 15:34N 36°30' E 014°21'1712.0
2014-Apr-03 14:07N 36°25' E 014°41'  

Dump ship's entire track history

sailing weather and tide predictions

Handytankers Marvel — V7OZ3 — position and weather